sensor_id;sensor_type;location;lat;lon;timestamp;temperature;humidity
61412;DHT22;47278;49.732;7.690;2023-04-01T00:00:24;13.10;99.90
61412;DHT22;47278;49.732;7.690;2023-04-01T00:02:49;10.60;99.90
61412;DHT22;47278;49.732;7.690;2023-04-01T00:05:15;10.60;99.90
61412;DHT22;47278;49.732;7.690;2023-04-01T00:07:41;10.50;99.90
61412;DHT22;47278;49.732;7.690;2023-04-01T00:10:07;10.50;99.90
61412;DHT22;47278;49.732;7.690;2023-04-01T00:12:33;10.50;99.90
61412;DHT22;47278;49.732;7.690;2023-04-01T00:15:00;10.50;99.90
61412;DHT22;47278;49.732;7.690;2023-04-01T00:17:25;10.50;99.90
61412;DHT22;47278;49.732;7.690;2023-04-01T00:19:51;10.40;99.90
61412;DHT22;47278;49.732;7.690;2023-04-01T00:22:16;10.50;99.90
61412;DHT22;47278;49.732;7.690;2023-04-01T00:24:42;10.50;99.90
61412;DHT22;47278;49.732;7.690;2023-04-01T00:27:08;10.50;99.90
61412;DHT22;47278;49.732;7.690;2023-04-01T00:29:33;10.50;99.90
61412;DHT22;47278;49.732;7.690;2023-04-01T00:31:59;10.50;99.90
61412;DHT22;47278;49.732;7.690;2023-04-01T00:34:24;10.50;99.90
61412;DHT22;47278;49.732;7.690;2023-04-01T00:36:50;10.40;99.90
61412;DHT22;47278;49.732;7.690;2023-04-01T00:39:19;10.40;99.90
61412;DHT22;47278;49.732;7.690;2023-04-01T00:41:46;10.20;99.90
61412;DHT22;47278;49.732;7.690;2023-04-01T00:44:16;10.40;99.90
61412;DHT22;47278;49.732;7.690;2023-04-01T00:46:43;10.40;99.90
61412;DHT22;47278;49.732;7.690;2023-04-01T00:49:09;10.40;99.90
61412;DHT22;47278;49.732;7.690;2023-04-01T00:51:34;10.40;99.90
61412;DHT22;47278;49.732;7.690;2023-04-01T00:54:03;10.40;99.90
61412;DHT22;47278;49.732;7.690;2023-04-01T00:56:40;10.40;99.90
61412;DHT22;47278;49.732;7.690;2023-04-01T00:59:09;10.40;99.90
61412;DHT22;47278;49.732;7.690;2023-04-01T01:01:36;10.30;99.90
61412;DHT22;47278;49.732;7.690;2023-04-01T01:04:02;10.40;99.90
61412;DHT22;47278;49.732;7.690;2023-04-01T01:09:06;10.40;99.90
61412;DHT22;47278;49.732;7.690;2023-04-01T01:11:43;10.40;99.90
61412;DHT22;47278;49.732;7.690;2023-04-01T01:22:17;10.40;99.90
61412;DHT22;47278;49.732;7.690;2023-04-01T01:24:55;10.40;99.90
61412;DHT22;47278;49.732;7.690;2023-04-01T01:27:26;10.30;99.90
61412;DHT22;47278;49.732;7.690;2023-04-01T01:29:59;10.20;99.90
61412;DHT22;47278;49.732;7.690;2023-04-01T01:37:47;10.20;99.90
61412;DHT22;47278;49.732;7.690;2023-04-01T01:40:15;10.10;99.90
61412;DHT22;47278;49.732;7.690;2023-04-01T01:42:42;10.10;99.90
61412;DHT22;47278;49.732;7.690;2023-04-01T01:45:10;10.10;99.90
61412;DHT22;47278;49.732;7.690;2023-04-01T01:47:36;10.00;99.90
61412;DHT22;47278;49.732;7.690;2023-04-01T01:50:02;10.00;99.90
61412;DHT22;47278;49.732;7.690;2023-04-01T01:52:30;9.90;99.90
61412;DHT22;47278;49.732;7.690;2023-04-01T01:54:56;9.90;99.90
61412;DHT22;47278;49.732;7.690;2023-04-01T01:57:31;9.90;99.90
61412;DHT22;47278;49.732;7.690;2023-04-01T02:00:03;9.90;99.90
61412;DHT22;47278;49.732;7.690;2023-04-01T02:02:33;9.90;99.90
61412;DHT22;47278;49.732;7.690;2023-04-01T02:04:59;9.80;99.90
61412;DHT22;47278;49.732;7.690;2023-04-01T02:07:26;9.90;99.90
61412;DHT22;47278;49.732;7.690;2023-04-01T02:09:53;9.90;99.90
61412;DHT22;47278;49.732;7.690;2023-04-01T02:12:19;9.90;99.90
61412;DHT22;47278;49.732;7.690;2023-04-01T02:14:52;9.90;99.90
61412;DHT22;47278;49.732;7.690;2023-04-01T02:17:19;9.80;99.90
61412;DHT22;47278;49.732;7.690;2023-04-01T02:19:52;9.80;99.90
61412;DHT22;47278;49.732;7.690;2023-04-01T02:22:20;9.90;99.90
61412;DHT22;47278;49.732;7.690;2023-04-01T02:24:46;9.80;99.90
61412;DHT22;47278;49.732;7.690;2023-04-01T02:27:13;9.90;99.90
61412;DHT22;47278;49.732;7.690;2023-04-01T02:29:38;9.90;99.90
61412;DHT22;47278;49.732;7.690;2023-04-01T02:32:04;9.90;99.90
61412;DHT22;47278;49.732;7.690;2023-04-01T02:34:31;9.90;99.90
61412;DHT22;47278;49.732;7.690;2023-04-01T02:36:56;9.90;99.90
61412;DHT22;47278;49.732;7.690;2023-04-01T02:39:22;9.90;99.90
61412;DHT22;47278;49.732;7.690;2023-04-01T02:41:48;9.90;99.90
61412;DHT22;47278;49.732;7.690;2023-04-01T02:44:14;9.90;99.90
61412;DHT22;47278;49.732;7.690;2023-04-01T02:46:40;9.90;99.90
61412;DHT22;47278;49.732;7.690;2023-04-01T02:49:05;9.90;99.90
61412;DHT22;47278;49.732;7.690;2023-04-01T02:51:31;10.00;99.90
61412;DHT22;47278;49.732;7.690;2023-04-01T02:53:57;9.90;99.90
61412;DHT22;47278;49.732;7.690;2023-04-01T02:56:22;9.90;99.90
61412;DHT22;47278;49.732;7.690;2023-04-01T02:58:48;9.90;99.90
61412;DHT22;47278;49.732;7.690;2023-04-01T03:01:14;10.00;99.90
61412;DHT22;47278;49.732;7.690;2023-04-01T03:03:39;10.00;99.90
61412;DHT22;47278;49.732;7.690;2023-04-01T03:06:09;10.00;99.90
61412;DHT22;47278;49.732;7.690;2023-04-01T03:08:34;10.00;99.90
61412;DHT22;47278;49.732;7.690;2023-04-01T03:11:00;9.90;99.90
61412;DHT22;47278;49.732;7.690;2023-04-01T03:13:26;9.90;99.90
61412;DHT22;47278;49.732;7.690;2023-04-01T03:15:51;9.90;99.90
61412;DHT22;47278;49.732;7.690;2023-04-01T03:18:17;9.90;99.90
61412;DHT22;47278;49.732;7.690;2023-04-01T03:20:43;9.90;99.90
61412;DHT22;47278;49.732;7.690;2023-04-01T03:23:08;9.90;99.90
61412;DHT22;47278;49.732;7.690;2023-04-01T03:25:34;9.90;99.90
61412;DHT22;47278;49.732;7.690;2023-04-01T03:27:59;9.90;99.90
61412;DHT22;47278;49.732;7.690;2023-04-01T03:30:25;12.50;99.90
61412;DHT22;47278;49.732;7.690;2023-04-01T03:32:51;9.90;99.90
61412;DHT22;47278;49.732;7.690;2023-04-01T03:35:17;9.80;99.90
61412;DHT22;47278;49.732;7.690;2023-04-01T03:37:43;9.80;99.90
61412;DHT22;47278;49.732;7.690;2023-04-01T03:40:08;9.80;99.90
61412;DHT22;47278;49.732;7.690;2023-04-01T03:42:34;9.80;99.90
61412;DHT22;47278;49.732;7.690;2023-04-01T03:45:00;9.80;99.90
61412;DHT22;47278;49.732;7.690;2023-04-01T03:47:26;9.70;99.90
61412;DHT22;47278;49.732;7.690;2023-04-01T03:49:51;9.70;99.90
61412;DHT22;47278;49.732;7.690;2023-04-01T03:52:17;9.70;99.90
61412;DHT22;47278;49.732;7.690;2023-04-01T03:54:42;9.70;99.90
61412;DHT22;47278;49.732;7.690;2023-04-01T03:57:08;9.60;99.90
61412;DHT22;47278;49.732;7.690;2023-04-01T03:59:34;9.60;99.90
61412;DHT22;47278;49.732;7.690;2023-04-01T04:01:59;9.60;99.90
61412;DHT22;47278;49.732;7.690;2023-04-01T04:04:25;11.10;99.90
61412;DHT22;47278;49.732;7.690;2023-04-01T04:06:51;9.60;99.90
61412;DHT22;47278;49.732;7.690;2023-04-01T04:09:17;9.60;99.90
61412;DHT22;47278;49.732;7.690;2023-04-01T04:11:42;9.50;99.90
61412;DHT22;47278;49.732;7.690;2023-04-01T04:14:08;9.50;99.90
61412;DHT22;47278;49.732;7.690;2023-04-01T04:16:36;9.50;99.90
61412;DHT22;47278;49.732;7.690;2023-04-01T04:19:02;9.50;99.90
61412;DHT22;47278;49.732;7.690;2023-04-01T04:21:28;11.90;99.90
61412;DHT22;47278;49.732;7.690;2023-04-01T04:23:54;9.50;99.90
61412;DHT22;47278;49.732;7.690;2023-04-01T04:26:19;9.50;99.90
61412;DHT22;47278;49.732;7.690;2023-04-01T04:28:45;9.50;99.90
61412;DHT22;47278;49.732;7.690;2023-04-01T04:31:10;9.50;99.90
61412;DHT22;47278;49.732;7.690;2023-04-01T04:33:36;6.80;99.90
61412;DHT22;47278;49.732;7.690;2023-04-01T04:36:02;9.40;99.90
61412;DHT22;47278;49.732;7.690;2023-04-01T04:38:28;9.40;99.90
61412;DHT22;47278;49.732;7.690;2023-04-01T04:40:54;9.40;99.90
61412;DHT22;47278;49.732;7.690;2023-04-01T04:43:19;9.40;99.90
61412;DHT22;47278;49.732;7.690;2023-04-01T04:45:45;9.40;99.90
61412;DHT22;47278;49.732;7.690;2023-04-01T04:48:11;9.40;99.90
61412;DHT22;47278;49.732;7.690;2023-04-01T04:50:43;9.40;99.90
61412;DHT22;47278;49.732;7.690;2023-04-01T04:53:10;9.40;99.90
61412;DHT22;47278;49.732;7.690;2023-04-01T04:55:35;9.50;99.90
61412;DHT22;47278;49.732;7.690;2023-04-01T04:58:01;9.40;99.90
61412;DHT22;47278;49.732;7.690;2023-04-01T05:00:26;9.40;99.90
61412;DHT22;47278;49.732;7.690;2023-04-01T05:02:52;9.40;99.90
61412;DHT22;47278;49.732;7.690;2023-04-01T05:05:18;9.40;99.90
61412;DHT22;47278;49.732;7.690;2023-04-01T05:07:43;9.30;99.90
61412;DHT22;47278;49.732;7.690;2023-04-01T05:10:09;9.30;99.90
61412;DHT22;47278;49.732;7.690;2023-04-01T05:12:35;9.30;99.90
61412;DHT22;47278;49.732;7.690;2023-04-01T05:15:05;9.30;99.90
61412;DHT22;47278;49.732;7.690;2023-04-01T05:17:31;9.30;99.90
61412;DHT22;47278;49.732;7.690;2023-04-01T05:19:56;9.20;99.90
61412;DHT22;47278;49.732;7.690;2023-04-01T05:22:22;9.30;99.90
61412;DHT22;47278;49.732;7.690;2023-04-01T05:24:47;9.20;99.90
61412;DHT22;47278;49.732;7.690;2023-04-01T05:27:13;9.20;99.90
61412;DHT22;47278;49.732;7.690;2023-04-01T05:29:38;9.30;99.90
61412;DHT22;47278;49.732;7.690;2023-04-01T05:32:04;9.30;99.90
61412;DHT22;47278;49.732;7.690;2023-04-01T05:34:29;9.30;99.90
61412;DHT22;47278;49.732;7.690;2023-04-01T05:36:55;9.30;99.90
61412;DHT22;47278;49.732;7.690;2023-04-01T05:39:21;9.30;99.90
61412;DHT22;47278;49.732;7.690;2023-04-01T05:41:46;9.30;99.90
61412;DHT22;47278;49.732;7.690;2023-04-01T05:44:12;9.40;99.90
61412;DHT22;47278;49.732;7.690;2023-04-01T05:46:37;9.40;99.90
61412;DHT22;47278;49.732;7.690;2023-04-01T05:49:03;9.40;99.90
61412;DHT22;47278;49.732;7.690;2023-04-01T05:51:28;9.40;99.90
61412;DHT22;47278;49.732;7.690;2023-04-01T05:53:54;9.40;99.90
61412;DHT22;47278;49.732;7.690;2023-04-01T05:56:20;9.40;99.90
61412;DHT22;47278;49.732;7.690;2023-04-01T05:58:46;9.30;99.90
61412;DHT22;47278;49.732;7.690;2023-04-01T06:01:15;9.30;99.90
61412;DHT22;47278;49.732;7.690;2023-04-01T06:03:41;9.20;99.90
61412;DHT22;47278;49.732;7.690;2023-04-01T06:06:16;9.30;99.90
61412;DHT22;47278;49.732;7.690;2023-04-01T06:08:45;9.30;99.90
61412;DHT22;47278;49.732;7.690;2023-04-01T06:16:11;9.20;99.90
61412;DHT22;47278;49.732;7.690;2023-04-01T06:18:45;9.20;99.90
61412;DHT22;47278;49.732;7.690;2023-04-01T06:29:03;9.20;99.90
61412;DHT22;47278;49.732;7.690;2023-04-01T06:34:24;9.30;99.90
61412;DHT22;47278;49.732;7.690;2023-04-01T06:57:43;9.80;99.90
61412;DHT22;47278;49.732;7.690;2023-04-01T07:00:19;9.90;99.90
61412;DHT22;47278;49.732;7.690;2023-04-01T07:02:59;10.00;99.90
61412;DHT22;47278;49.732;7.690;2023-04-01T07:05:28;13.00;99.90
61412;DHT22;47278;49.732;7.690;2023-04-01T07:07:56;10.00;99.90
61412;DHT22;47278;49.732;7.690;2023-04-01T07:10:31;10.00;99.90
61412;DHT22;47278;49.732;7.690;2023-04-01T07:12:58;10.10;99.90
61412;DHT22;47278;49.732;7.690;2023-04-01T07:15:31;10.10;99.90
61412;DHT22;47278;49.732;7.690;2023-04-01T07:18:05;10.20;99.90
61412;DHT22;47278;49.732;7.690;2023-04-01T07:20:32;10.30;99.90
61412;DHT22;47278;49.732;7.690;2023-04-01T07:23:02;10.20;99.90
61412;DHT22;47278;49.732;7.690;2023-04-01T07:25:34;10.20;99.90
61412;DHT22;47278;49.732;7.690;2023-04-01T07:28:03;10.20;99.90
61412;DHT22;47278;49.732;7.690;2023-04-01T07:30:33;10.10;99.90
61412;DHT22;47278;49.732;7.690;2023-04-01T07:33:25;10.20;99.90
61412;DHT22;47278;49.732;7.690;2023-04-01T07:38:26;10.30;99.90
61412;DHT22;47278;49.732;7.690;2023-04-01T07:43:37;9.70;99.90
61412;DHT22;47278;49.732;7.690;2023-04-01T07:48:43;10.30;99.90
61412;DHT22;47278;49.732;7.690;2023-04-01T07:56:17;10.20;99.90
61412;DHT22;47278;49.732;7.690;2023-04-01T08:01:16;10.20;99.90
61412;DHT22;47278;49.732;7.690;2023-04-01T08:06:53;10.20;99.90
61412;DHT22;47278;49.732;7.690;2023-04-01T08:09:07;10.20;99.90
61412;DHT22;47278;49.732;7.690;2023-04-01T08:14:32;10.30;99.90
61412;DHT22;47278;49.732;7.690;2023-04-01T08:21:57;10.40;99.90
61412;DHT22;47278;49.732;7.690;2023-04-01T08:26:53;10.40;99.90
61412;DHT22;47278;49.732;7.690;2023-04-01T08:29:21;10.40;99.90
61412;DHT22;47278;49.732;7.690;2023-04-01T08:34:20;10.50;99.90
61412;DHT22;47278;49.732;7.690;2023-04-01T08:36:50;10.70;99.90
61412;DHT22;47278;49.732;7.690;2023-04-01T08:39:24;8.60;99.90
61412;DHT22;47278;49.732;7.690;2023-04-01T09:16:02;10.70;99.90
61412;DHT22;47278;49.732;7.690;2023-04-01T09:18:40;10.80;99.90
61412;DHT22;47278;49.732;7.690;2023-04-01T09:44:48;11.40;99.90
61412;DHT22;47278;49.732;7.690;2023-04-01T09:50:32;11.40;99.90
61412;DHT22;47278;49.732;7.690;2023-04-01T10:00:46;11.30;99.90
61412;DHT22;47278;49.732;7.690;2023-04-01T10:06:06;11.40;99.90
61412;DHT22;47278;49.732;7.690;2023-04-01T10:22:09;11.10;99.90
61412;DHT22;47278;49.732;7.690;2023-04-01T10:24:53;11.00;99.90
61412;DHT22;47278;49.732;7.690;2023-04-01T10:30:32;11.10;99.90
61412;DHT22;47278;49.732;7.690;2023-04-01T10:41:19;11.40;99.90
61412;DHT22;47278;49.732;7.690;2023-04-01T10:49:10;11.30;99.90
61412;DHT22;47278;49.732;7.690;2023-04-01T10:54:29;11.20;99.90
61412;DHT22;47278;49.732;7.690;2023-04-01T10:57:02;11.40;99.90
61412;DHT22;47278;49.732;7.690;2023-04-01T11:21:44;11.40;99.90
61412;DHT22;47278;49.732;7.690;2023-04-01T11:26:57;11.50;99.90
61412;DHT22;47278;49.732;7.690;2023-04-01T11:29:39;11.50;99.90
61412;DHT22;47278;49.732;7.690;2023-04-01T11:47:51;11.60;99.90
61412;DHT22;47278;49.732;7.690;2023-04-01T11:57:51;11.50;99.90
61412;DHT22;47278;49.732;7.690;2023-04-01T12:13:11;11.70;99.90
61412;DHT22;47278;49.732;7.690;2023-04-01T12:15:53;11.70;99.90
61412;DHT22;47278;49.732;7.690;2023-04-01T12:25:56;11.80;99.90
61412;DHT22;47278;49.732;7.690;2023-04-01T12:30:52;11.80;99.90
61412;DHT22;47278;49.732;7.690;2023-04-01T12:36:22;11.80;99.90
61412;DHT22;47278;49.732;7.690;2023-04-01T12:41:21;11.70;99.90
61412;DHT22;47278;49.732;7.690;2023-04-01T12:46:41;11.70;99.90
61412;DHT22;47278;49.732;7.690;2023-04-01T12:52:03;11.70;99.90
61412;DHT22;47278;49.732;7.690;2023-04-01T12:57:09;11.60;99.90
61412;DHT22;47278;49.732;7.690;2023-04-01T13:07:32;11.50;99.90
61412;DHT22;47278;49.732;7.690;2023-04-01T13:10:04;11.50;99.90
61412;DHT22;47278;49.732;7.690;2023-04-01T13:17:48;11.30;99.90
61412;DHT22;47278;49.732;7.690;2023-04-01T13:20:21;11.20;99.90
61412;DHT22;47278;49.732;7.690;2023-04-01T13:25:39;11.10;99.90
61412;DHT22;47278;49.732;7.690;2023-04-01T13:28:19;11.10;99.90
61412;DHT22;47278;49.732;7.690;2023-04-01T13:36:35;11.10;99.90
61412;DHT22;47278;49.732;7.690;2023-04-01T13:44:29;11.10;99.90
61412;DHT22;47278;49.732;7.690;2023-04-01T14:02:28;11.50;99.90
61412;DHT22;47278;49.732;7.690;2023-04-01T14:17:35;11.40;99.90
61412;DHT22;47278;49.732;7.690;2023-04-01T14:33:34;11.30;99.90
61412;DHT22;47278;49.732;7.690;2023-04-01T14:41:33;11.30;99.90
61412;DHT22;47278;49.732;7.690;2023-04-01T14:46:53;11.20;99.90
61412;DHT22;47278;49.732;7.690;2023-04-01T14:49:30;11.30;99.90
61412;DHT22;47278;49.732;7.690;2023-04-01T14:52:04;11.20;99.90
61412;DHT22;47278;49.732;7.690;2023-04-01T14:54:34;11.30;99.90
61412;DHT22;47278;49.732;7.690;2023-04-01T14:57:12;11.30;99.90
61412;DHT22;47278;49.732;7.690;2023-04-01T14:59:39;11.20;99.90
61412;DHT22;47278;49.732;7.690;2023-04-01T15:07:35;11.00;99.90
61412;DHT22;47278;49.732;7.690;2023-04-01T15:12:36;11.10;99.90
61412;DHT22;47278;49.732;7.690;2023-04-01T15:30:49;11.30;99.90
61412;DHT22;47278;49.732;7.690;2023-04-01T15:38:58;11.80;99.90
61412;DHT22;47278;49.732;7.690;2023-04-01T15:46:54;11.70;99.90
61412;DHT22;47278;49.732;7.690;2023-04-01T15:52:21;11.60;99.90
61412;DHT22;47278;49.732;7.690;2023-04-01T16:13:10;11.60;99.90
61412;DHT22;47278;49.732;7.690;2023-04-01T16:15:09;11.80;99.90
61412;DHT22;47278;49.732;7.690;2023-04-01T16:17:57;11.80;99.90
61412;DHT22;47278;49.732;7.690;2023-04-01T16:20:44;11.60;99.90
61412;DHT22;47278;49.732;7.690;2023-04-01T16:25:44;11.50;99.90
61412;DHT22;47278;49.732;7.690;2023-04-01T16:30:39;11.50;99.90
61412;DHT22;47278;49.732;7.690;2023-04-01T16:35:47;11.30;99.90
61412;DHT22;47278;49.732;7.690;2023-04-01T16:43:29;11.30;99.90
61412;DHT22;47278;49.732;7.690;2023-04-01T16:48:36;11.30;99.90
61412;DHT22;47278;49.732;7.690;2023-04-01T16:51:12;11.20;99.90
61412;DHT22;47278;49.732;7.690;2023-04-01T16:53:43;12.20;99.90
61412;DHT22;47278;49.732;7.690;2023-04-01T16:56:16;11.00;99.90
61412;DHT22;47278;49.732;7.690;2023-04-01T17:01:12;11.00;99.90
61412;DHT22;47278;49.732;7.690;2023-04-01T17:03:40;10.90;99.90
61412;DHT22;47278;49.732;7.690;2023-04-01T17:09:01;10.90;99.90
61412;DHT22;47278;49.732;7.690;2023-04-01T17:11:31;11.00;99.90
61412;DHT22;47278;49.732;7.690;2023-04-01T17:16:52;11.00;99.90
61412;DHT22;47278;49.732;7.690;2023-04-01T17:22:07;10.90;99.90
61412;DHT22;47278;49.732;7.690;2023-04-01T17:24:46;10.90;99.90
61412;DHT22;47278;49.732;7.690;2023-04-01T17:35:04;10.70;99.90
61412;DHT22;47278;49.732;7.690;2023-04-01T17:45:18;10.70;99.90
61412;DHT22;47278;49.732;7.690;2023-04-01T17:47:52;10.70;99.90
61412;DHT22;47278;49.732;7.690;2023-04-01T17:50:25;10.60;99.90
61412;DHT22;47278;49.732;7.690;2023-04-01T18:07:42;10.30;99.90
61412;DHT22;47278;49.732;7.690;2023-04-01T18:10:23;10.30;99.90
61412;DHT22;47278;49.732;7.690;2023-04-01T18:21:02;10.30;99.90
61412;DHT22;47278;49.732;7.690;2023-04-01T18:23:35;10.30;99.90
61412;DHT22;47278;49.732;7.690;2023-04-01T18:26:08;10.20;99.90
61412;DHT22;47278;49.732;7.690;2023-04-01T18:28:39;10.30;99.90
61412;DHT22;47278;49.732;7.690;2023-04-01T18:31:54;10.30;99.90
61412;DHT22;47278;49.732;7.690;2023-04-01T18:47:14;10.30;99.90
61412;DHT22;47278;49.732;7.690;2023-04-01T18:52:27;10.20;99.90
61412;DHT22;47278;49.732;7.690;2023-04-01T18:57:40;10.10;99.90
61412;DHT22;47278;49.732;7.690;2023-04-01T19:02:48;10.00;99.90
61412;DHT22;47278;49.732;7.690;2023-04-01T19:05:19;10.00;99.90
61412;DHT22;47278;49.732;7.690;2023-04-01T19:07:46;9.90;99.90
61412;DHT22;47278;49.732;7.690;2023-04-01T19:10:14;9.90;99.90
61412;DHT22;47278;49.732;7.690;2023-04-01T19:18:01;9.90;99.90
61412;DHT22;47278;49.732;7.690;2023-04-01T19:23:17;9.90;99.90
61412;DHT22;47278;49.732;7.690;2023-04-01T19:25:56;9.90;99.90
61412;DHT22;47278;49.732;7.690;2023-04-01T19:28:26;10.00;99.90
61412;DHT22;47278;49.732;7.690;2023-04-01T19:30:55;9.90;99.90
61412;DHT22;47278;49.732;7.690;2023-04-01T19:36:24;9.80;99.90
61412;DHT22;47278;49.732;7.690;2023-04-01T19:38:55;9.80;99.90
61412;DHT22;47278;49.732;7.690;2023-04-01T19:49:06;9.70;99.90
61412;DHT22;47278;49.732;7.690;2023-04-01T20:04:53;9.70;99.90
61412;DHT22;47278;49.732;7.690;2023-04-01T20:07:26;9.80;99.90
61412;DHT22;47278;49.732;7.690;2023-04-01T20:13:00;9.70;99.90
61412;DHT22;47278;49.732;7.690;2023-04-01T20:15:36;9.80;99.90
61412;DHT22;47278;49.732;7.690;2023-04-01T20:18:16;9.80;99.90
61412;DHT22;47278;49.732;7.690;2023-04-01T20:20:53;9.80;99.90
61412;DHT22;47278;49.732;7.690;2023-04-01T20:26:12;9.80;99.90
61412;DHT22;47278;49.732;7.690;2023-04-01T20:36:19;9.80;99.90
61412;DHT22;47278;49.732;7.690;2023-04-01T20:52:35;9.80;99.90
61412;DHT22;47278;49.732;7.690;2023-04-01T21:02:55;9.80;99.90
61412;DHT22;47278;49.732;7.690;2023-04-01T21:05:22;9.80;99.90
61412;DHT22;47278;49.732;7.690;2023-04-01T21:15:26;9.80;99.90
61412;DHT22;47278;49.732;7.690;2023-04-01T21:23:20;9.90;99.90
61412;DHT22;47278;49.732;7.690;2023-04-01T21:28:22;9.80;99.90
61412;DHT22;47278;49.732;7.690;2023-04-01T21:31:11;9.80;99.90
61412;DHT22;47278;49.732;7.690;2023-04-01T21:33:43;9.80;99.90
61412;DHT22;47278;49.732;7.690;2023-04-01T21:36:18;9.80;99.90
61412;DHT22;47278;49.732;7.690;2023-04-01T21:46:54;9.70;99.90
61412;DHT22;47278;49.732;7.690;2023-04-01T22:00:12;9.60;99.90
61412;DHT22;47278;49.732;7.690;2023-04-01T22:13:35;9.60;99.90
61412;DHT22;47278;49.732;7.690;2023-04-01T22:16:23;9.60;99.90
61412;DHT22;47278;49.732;7.690;2023-04-01T22:19:38;9.60;99.90
61412;DHT22;47278;49.732;7.690;2023-04-01T22:21:44;9.50;99.90
61412;DHT22;47278;49.732;7.690;2023-04-01T22:27:28;9.50;99.90
61412;DHT22;47278;49.732;7.690;2023-04-01T22:29:35;9.50;99.90
61412;DHT22;47278;49.732;7.690;2023-04-01T22:37:56;9.50;99.90
61412;DHT22;47278;49.732;7.690;2023-04-01T22:40:01;9.50;99.90
61412;DHT22;47278;49.732;7.690;2023-04-01T22:42:40;9.50;99.90
61412;DHT22;47278;49.732;7.690;2023-04-01T22:50:22;7.30;99.90
61412;DHT22;47278;49.732;7.690;2023-04-01T22:52:53;9.50;99.90
61412;DHT22;47278;49.732;7.690;2023-04-01T22:55:23;9.50;99.90
61412;DHT22;47278;49.732;7.690;2023-04-01T22:57:57;9.50;99.90
61412;DHT22;47278;49.732;7.690;2023-04-01T23:00:26;9.50;99.90
61412;DHT22;47278;49.732;7.690;2023-04-01T23:05:27;9.50;99.90
61412;DHT22;47278;49.732;7.690;2023-04-01T23:13:03;9.50;99.90
61412;DHT22;47278;49.732;7.690;2023-04-01T23:15:29;9.50;99.90
61412;DHT22;47278;49.732;7.690;2023-04-01T23:20:31;9.40;99.90
61412;DHT22;47278;49.732;7.690;2023-04-01T23:30:52;9.30;99.90
61412;DHT22;47278;49.732;7.690;2023-04-01T23:35:50;9.20;99.90
61412;DHT22;47278;49.732;7.690;2023-04-01T23:38:16;9.20;99.90
61412;DHT22;47278;49.732;7.690;2023-04-01T23:40:42;9.20;99.90
61412;DHT22;47278;49.732;7.690;2023-04-01T23:43:27;9.20;99.90
61412;DHT22;47278;49.732;7.690;2023-04-01T23:45:57;9.20;99.90
61412;DHT22;47278;49.732;7.690;2023-04-01T23:48:26;9.20;99.90
61412;DHT22;47278;49.732;7.690;2023-04-01T23:50:53;9.20;99.90
61412;DHT22;47278;49.732;7.690;2023-04-01T23:53:20;9.10;99.90
61412;DHT22;47278;49.732;7.690;2023-04-01T23:55:46;9.10;99.90
61412;DHT22;47278;49.732;7.690;2023-04-01T23:58:21;9.00;99.90
